Garfield, Ohio
Current Conditions -  °F | °C
As of 7:53 AM on Thursday 23 Oct 2014 (Local Time) from KBKL Reporting Station
Clear Clear  
Wind Chill: 51°   Ceiling: Unl
Heat Index: 51°   Visibility: 10mi
Dew Point: 46°   Wind: 13mph
Humidity: 83%   Direction: 340°NNW
Pressure: 30.19"   Gusts: NA
Location:  41.4062°N, 81.6149°W
Report Text: KBKL 231153Z 34011KT 10SM CLR 11/08 A3019 RMK AO2 SLP224 T01060078 10117 20106 50000
Loading
Personal Weather Stations






























Interactive Weather Map
Tropical Storm Tracking
New forecast layout! Learn more

10-Day Weather Forecast

Advertisements
Track Severe Weather on mobile